Flight Track Log - Related Links

Times and Time Zones

All times are in EDT time to prevent confusion due to time zone crossing. See the AWE48 flight status page for this flight to view local times or setup timezone preferences in your user account.

Time Position Orientation Groundspeed Altitude Reporting Facility
EDT Latitude Longitude Course Direction KTS MPH feet Rate Location/Type
Mon 09:08:15 PM 38.8671 -77.0666 153° Southeast  Level FlightAware Approximate
Mon 09:08:54 PM 38.8167 -77.0333 195° South 155 178 1,800  Level Potomac TRACON
Mon 09:09:54 PM 38.7667 -77.0500 256° West 225 259 3,400 1,357 Climbing Potomac TRACON
Mon 09:10:49 PM 38.7500 -77.1333 297° West 243 280 4,400 1,043 Climbing Potomac TRACON
Mon 09:11:49 PM 38.7833 -77.2167 303° West 257 296 5,400 2,100 Climbing Potomac TRACON
Mon 09:12:49 PM 38.8167 -77.2833 284° West 247 284 8,600 3,273 Climbing Potomac TRACON
Mon 09:13:50 PM 38.8333 -77.3667 297° West 235 270 12,000 2,281 Climbing Potomac TRACON
Mon 09:14:50 PM 38.8667 -77.4500 314° West 277 319 13,200 1,148 Climbing Potomac TRACON
Mon 09:15:45 PM 38.9167 -77.5167 354° North 352 405 14,200 1,587 Climbing Potomac TRACON
Mon 09:16:51 PM 39.0333 -77.5333 333° Northwest 404 465 16,400 889 Climbing Potomac TRACON
Mon 09:18:54 PM 39.2250 -77.6572 333° Northwest 364 419 17,000 717 Climbing Washington Center
Mon 09:19:55 PM 39.3178 -77.7189 333° Northwest 364 419 18,600 1,765 Climbing Washington Center
Mon 09:20:53 PM 39.4144 -77.7836 333° Northwest 369 425 20,500 1,765 Climbing Washington Center
Mon 09:21:54 PM 39.5133 -77.8483 296° West 382 440 22,100 1,336 Climbing Washington Center
Mon 09:24:24 PM 39.6286 -78.1600 290° West 387 445 25,200 1,629 Climbing Cleveland Center
Mon 09:25:24 PM 39.6714 -78.3094 290° West 402 463 27,800 1,850 Climbing Cleveland Center
Mon 09:26:24 PM 39.7094 -78.4458 291° West 402 463 28,900 1,000 Climbing Cleveland Center
Mon 09:27:24 PM 39.7494 -78.5797 290° West 402 463 29,800 900 Climbing Cleveland Center
Mon 09:28:24 PM 39.7847 -78.7028 291° West 409 471 30,700 950 Climbing Cleveland Center
Mon 09:29:24 PM 39.8267 -78.8450 291° West 409 471 31,700 1,100 Climbing Cleveland Center
Mon 09:30:24 PM 39.8683 -78.9844 291° West 409 471 32,900 1,150 Climbing Cleveland Center
Mon 09:31:24 PM 39.9097 -79.1242 290° West 409 471 34,000 550 Climbing Cleveland Center
Mon 09:32:24 PM 39.9492 -79.2642 290° West 409 471 34,000  Level Cleveland Center
Mon 09:33:24 PM 39.9903 -79.4097 302° West 419 482 34,000  Level Cleveland Center
Mon 09:34:24 PM 40.0500 -79.5361 311° West 414 476 34,000  Level Cleveland Center
Mon 09:35:24 PM 40.1258 -79.6517 304° West 414 476 34,000  Level Cleveland Center
Mon 09:36:24 PM 40.1914 -79.7786 303° West 420 483 34,000  Level Cleveland Center
Mon 09:37:24 PM 40.2528 -79.9003 303° West 414 476 34,000  Level Cleveland Center
Mon 09:38:24 PM 40.3139 -80.0222 302° West 414 476 34,000  Level Cleveland Center
Mon 09:39:24 PM 40.3750 -80.1497 303° West 414 476 34,000  Level Cleveland Center
Mon 09:40:24 PM 40.4378 -80.2747 305° West 414 476 34,000  Level Cleveland Center
Mon 09:41:24 PM 40.5111 -80.4111 303° West 414 476 34,000  Level Cleveland Center
Mon 09:42:24 PM 40.5758 -80.5422 301° West 420 483 34,000  Level Cleveland Center
Mon 09:43:24 PM 40.6278 -80.6542 299° West 415 478 34,000  Level Cleveland Center
Mon 09:44:24 PM 40.6881 -80.7994 277° West 415 478 34,000  Level Cleveland Center
Mon 09:45:24 PM 40.7025 -80.9472 274° West 399 459 34,000  Level Cleveland Center
Mon 09:46:24 PM 40.7103 -81.0789 277° West 404 465 34,000  Level Cleveland Center
Mon 09:47:24 PM 40.7242 -81.2269 275° West 409 471 34,000  Level Cleveland Center
Mon 09:48:24 PM 40.7356 -81.3858 277° West 404 465 34,000  Level Cleveland Center
Mon 09:49:24 PM 40.7489 -81.5314 275° West 404 465 34,000  Level Cleveland Center
Mon 09:50:24 PM 40.7581 -81.6822 277° West 409 471 34,000  Level Cleveland Center
Mon 09:51:24 PM 40.7711 -81.8306 276° West 409 471 34,000  Level Cleveland Center
Mon 09:52:24 PM 40.7819 -81.9789 275° West 409 471 34,000  Level Cleveland Center
Mon 09:53:24 PM 40.7925 -82.1272 276° West 409 471 34,000  Level Cleveland Center
Mon 09:54:24 PM 40.8050 -82.2756 291° West 409 471 34,000  Level Cleveland Center
Mon 09:55:24 PM 40.8428 -82.4028 288° West 403 464 34,000  Level Cleveland Center
Mon 09:56:24 PM 40.8778 -82.5439 288° West 409 471 34,000  Level Cleveland Center
Mon 09:57:24 PM 40.9147 -82.6906 288° West 414 476 34,000  Level Cleveland Center
Mon 09:58:24 PM 40.9497 -82.8319 288° West 409 471 34,000  Level Cleveland Center
Mon 09:59:24 PM 40.9844 -82.9733 287° West 409 471 34,000  Level Cleveland Center
Mon 10:00:24 PM 41.0206 -83.1289 290° West 404 465 34,000  Level Cleveland Center
Mon 10:01:24 PM 41.0572 -83.2597 287° West 409 471 34,000  Level Cleveland Center
Mon 10:02:24 PM 41.0914 -83.4044 283° West 414 476 34,000  Level Cleveland Center
Mon 10:03:24 PM 41.1186 -83.5600 285° West 404 465 34,000 -50 Level Cleveland Center
Mon 10:04:24 PM 41.1481 -83.7019 283° West 404 465 33,900 -50 Descending Cleveland Center
Mon 10:05:24 PM 41.1733 -83.8467 282° West 404 465 33,900 50 Level Cleveland Center
Mon 10:06:24 PM 41.1961 -83.9942 285° West 404 465 34,000 612 Climbing Cleveland Center
Mon 10:07:51 PM 41.2331 -84.1831 284° West 432 497 35,400 816 Climbing Chicago Center
Mon 10:08:51 PM 41.2628 -84.3381 273° West 421 484 36,000 300 Climbing Chicago Center
Mon 10:09:51 PM 41.2692 -84.4842 273° West 401 461 36,000  Level Chicago Center
Mon 10:10:51 PM 41.2753 -84.6275 271° West 394 453 36,000  Level Chicago Center
Mon 10:11:51 PM 41.2767 -84.7683 271° West 389 448 36,000  Level Chicago Center
Mon 10:12:51 PM 41.2781 -84.9064 271° West 389 448 36,000  Level Chicago Center
Mon 10:13:51 PM 41.2800 -85.0639 272° West 383 441 36,000  Level Chicago Center
Mon 10:14:51 PM 41.2831 -85.2047 270° West 383 441 36,000  Level Chicago Center
Mon 10:15:51 PM 41.2839 -85.3456 270° West 383 441 36,000  Level Chicago Center
Mon 10:16:51 PM 41.2847 -85.4892 271° West 383 441 36,000  Level Chicago Center
Mon 10:17:51 PM 41.2872 -85.6272 270° West 382 440 36,000  Level Chicago Center
Mon 10:18:51 PM 41.2875 -85.7683 270° West 382 440 36,000  Level Chicago Center
Mon 10:19:51 PM 41.2872 -85.8956 271° West 382 440 36,000  Level Chicago Center
Mon 10:20:51 PM 41.2892 -86.0336 271° West 382 440 36,000  Level Chicago Center
Mon 10:21:51 PM 41.2911 -86.1744 269° West 382 440 36,000  Level Chicago Center
Mon 10:22:51 PM 41.2886 -86.3128 272° West 382 440 36,000  Level Chicago Center
Mon 10:23:51 PM 41.2922 -86.4536 269° West 382 440 36,000  Level Chicago Center
Mon 10:24:51 PM 41.2894 -86.5919 271° West 382 440 36,000  Level Chicago Center
Mon 10:25:51 PM 41.2906 -86.7300 270° West 382 440 36,000  Level Chicago Center
Mon 10:26:51 PM 41.2897 -86.8711 269° West 382 440 36,000  Level Chicago Center
Mon 10:27:51 PM 41.2883 -87.0092 269° West 382 440 36,000  Level Chicago Center
Mon 10:28:51 PM 41.2869 -87.1503 269° West 382 440 36,000  Level Chicago Center
Mon 10:29:51 PM 41.2856 -87.2939 269° West 382 440 36,000  Level Chicago Center
Mon 10:30:51 PM 41.2839 -87.4350 269° West 382 440 36,000  Level Chicago Center
Mon 10:31:51 PM 41.2822 -87.5981 268° West 388 447 36,000  Level Chicago Center
Mon 10:32:51 PM 41.2797 -87.7142 269° West 393 452 36,000  Level Chicago Center
Mon 10:33:51 PM 41.2778 -87.8744 268° West 393 452 36,000  Level Chicago Center
Mon 10:34:51 PM 41.2733 -88.0183 270° West 399 459 36,000  Level Chicago Center
Mon 10:35:51 PM 41.2731 -88.1675 269° West 404 465 36,000 -50 Level Chicago Center
Mon 10:36:51 PM 41.2703 -88.3139 270° West 404 465 35,900  Descending Chicago Center
Mon 10:37:51 PM 41.2694 -88.4631 268° West 404 465 36,000 50 Climbing Chicago Center
Mon 10:38:51 PM 41.2661 -88.6094 268° West 404 465 36,000  Level Chicago Center
Mon 10:39:51 PM 41.2631 -88.7589 269° West 404 465 36,000  Level Chicago Center
Mon 10:40:51 PM 41.2614 -88.9053 268° West 404 465 36,000  Level Chicago Center
Mon 10:41:51 PM 41.2578 -89.0517 268° West 404 465 36,000  Level Chicago Center
Mon 10:42:51 PM 41.2539 -89.2008 268° West 404 465 36,000  Level Chicago Center
Mon 10:43:51 PM 41.2500 -89.3444 266° West 404 465 36,000  Level Chicago Center
Mon 10:44:51 PM 41.2414 -89.4961 266° West 404 465 36,000  Level Chicago Center
Mon 10:45:51 PM 41.2328 -89.6453 266° West 404 465 36,000  Level Chicago Center
Mon 10:46:51 PM 41.2239 -89.7944 268° West 404 465 36,000  Level Chicago Center
Mon 10:47:51 PM 41.2192 -89.9433 265° West 404 465 36,000  Level Chicago Center
Mon 10:48:51 PM 41.2100 -90.0925 265° West 409 471 36,000  Level Chicago Center
Mon 10:49:51 PM 41.2006 -90.2386 265° West 404 465 36,000  Level Chicago Center
Mon 10:50:51 PM 41.1911 -90.3875 266° West 404 465 36,000  Level Chicago Center
Mon 10:51:51 PM 41.1833 -90.5336 265° West 404 465 36,000  Level Chicago Center
Mon 10:52:51 PM 41.1733 -90.6822 265° West 404 465 36,000  Level Chicago Center
Mon 10:53:51 PM 41.1631 -90.8311 266° West 404 465 36,000  Level Chicago Center
Mon 10:54:51 PM 41.1550 -90.9742 265° West 404 465 36,000  Level Chicago Center
Mon 10:55:51 PM 41.1444 -91.1228 265° West 404 465 36,000  Level Chicago Center
Mon 10:56:51 PM 41.1339 -91.2686 266° West 404 465 36,000  Level Chicago Center
Mon 10:57:51 PM 41.1250 -91.4172 265° West 404 465 36,000  Level Chicago Center
Mon 10:58:51 PM 41.1158 -91.5631 264° West 404 465 36,000  Level Chicago Center
Mon 10:59:51 PM 41.1025 -91.7197 263° West 404 465 36,000  Level Chicago Center
Mon 11:00:51 PM 41.0889 -91.8625 266° West 404 465 36,000  Level Chicago Center
Mon 11:01:51 PM 41.0814 -92.0111 265° West 404 465 36,000  Level Chicago Center
Mon 11:02:51 PM 41.0717 -92.1567 264° West 404 465 36,000  Level Chicago Center
Mon 11:03:51 PM 41.0594 -92.3075 264° West 409 471 36,000  Level Chicago Center
Mon 11:04:51 PM 41.0497 -92.4394 265° West 404 465 36,000  Level Chicago Center
Mon 11:05:51 PM 41.0394 -92.5847 264° West 404 465 36,000  Level Chicago Center
Mon 11:06:51 PM 41.0269 -92.7328 263° West 404 465 36,000  Level Chicago Center
Mon 11:08:30 PM 41.0056 -92.9719 265° West 402 463 36,000  Level Minneapolis Center
Mon 11:09:31 PM 40.9958 -93.1122 263° West 395 455 36,000  Level Minneapolis Center
Mon 11:10:30 PM 40.9817 -93.2714 263° West 401 461 36,000  Level Minneapolis Center
Mon 11:11:30 PM 40.9692 -93.4142 263° West 401 461 36,000  Level Minneapolis Center
Mon 11:12:31 PM 40.9547 -93.5594 264° West 401 461 36,000  Level Minneapolis Center
Mon 11:13:30 PM 40.9439 -93.6994 263° West 401 461 36,000  Level Minneapolis Center
Mon 11:14:30 PM 40.9311 -93.8392 264° West 401 461 36,000  Level Minneapolis Center
Mon 11:15:30 PM 40.9200 -93.9817 263° West 396 456 36,000  Level Minneapolis Center
Mon 11:16:30 PM 40.9067 -94.1242 263° West 396 456 36,000  Level Minneapolis Center
Mon 11:17:30 PM 40.8933 -94.2636 263° West 391 450 36,000  Level Minneapolis Center
Mon 11:18:30 PM 40.8797 -94.4058 264° West 391 450 36,000  Level Minneapolis Center
Mon 11:19:31 PM 40.8678 -94.5483 260° West 391 450 36,000  Level Minneapolis Center
Mon 11:20:31 PM 40.8497 -94.6903 263° West 391 450 36,000  Level Minneapolis Center
Mon 11:21:30 PM 40.8375 -94.8269 263° West 386 444 36,000  Level Minneapolis Center
Mon 11:22:30 PM 40.8233 -94.9692 263° West 392 451 36,000  Level Minneapolis Center
Mon 11:23:30 PM 40.8108 -95.1083 262° West 392 451 36,000  Level Minneapolis Center
Mon 11:24:31 PM 40.7961 -95.2447 261° West 387 445 36,000 -50 Level Minneapolis Center
Mon 11:25:31 PM 40.7792 -95.3811 263° West 387 445 35,900  Descending Minneapolis Center
Mon 11:26:30 PM 40.7664 -95.5203 262° West 387 445 36,000 50 Climbing Minneapolis Center
Mon 11:27:30 PM 40.7508 -95.6647 262° West 392 451 36,000  Level Minneapolis Center
Mon 11:28:30 PM 40.7356 -95.8008 262° West 387 445 36,000  Level Minneapolis Center
Mon 11:29:30 PM 40.7200 -95.9450 263° West 387 445 36,000  Level Minneapolis Center
Mon 11:30:30 PM 40.7061 -96.0839 261° West 387 445 36,000  Level Minneapolis Center
Mon 11:31:31 PM 40.6881 -96.2308 263° West 397 457 36,000  Level Minneapolis Center
Mon 11:32:31 PM 40.6767 -96.3475 261° West 402 463 36,000  Level Minneapolis Center
Mon 11:33:30 PM 40.6578 -96.5025 261° West 407 468 36,000  Level Minneapolis Center
Mon 11:34:31 PM 40.6411 -96.6436 262° West 407 468 36,000  Level Minneapolis Center
Mon 11:35:30 PM 40.6242 -96.7928 261° West 407 468 36,000  Level Minneapolis Center
Mon 11:36:30 PM 40.6072 -96.9394 262° West 407 468 36,000  Level Minneapolis Center
Mon 11:37:30 PM 40.5919 -97.0886 260° West 407 468 36,000  Level Minneapolis Center
Mon 11:38:31 PM 40.5722 -97.2375 263° West 407 468 36,000  Level Minneapolis Center
Mon 11:39:30 PM 40.5586 -97.3839 261° West 412 474 36,000  Level Minneapolis Center
Mon 11:40:30 PM 40.5406 -97.5356 260° West 412 474 36,000  Level Minneapolis Center
Mon 11:41:30 PM 40.5200 -97.6922 261° West 429 494 36,000  Level Minneapolis Center
Mon 11:42:31 PM 40.5014 -97.8436 260° West 429 494 36,000  Level Minneapolis Center
Mon 11:43:30 PM 40.4806 -97.9975 261° West 429 494 36,000  Level Minneapolis Center
Mon 11:44:30 PM 40.4617 -98.1514 259° West 429 494 36,000  Level Minneapolis Center
Mon 11:45:31 PM 40.4375 -98.3183 260° West 429 494 36,000  Level Minneapolis Center
Mon 11:47:18 PM 40.4003 -98.5978 261° West 416 479 36,000  Level Denver Center
Mon 11:48:18 PM 40.3814 -98.7500 260° West 422 486 36,000  Level Denver Center
Mon 11:49:18 PM 40.3606 -98.9081 260° West 433 498 36,000  Level Denver Center
Mon 11:50:18 PM 40.3394 -99.0631 259° West 433 498 36,000  Level Denver Center
Mon 11:51:18 PM 40.3161 -99.2183 261° West 433 498 36,000  Level Denver Center
Mon 11:52:18 PM 40.2964 -99.3731 260° West 433 498 36,000  Level Denver Center
Mon 11:53:18 PM 40.2747 -99.5281 259° West 433 498 36,000  Level Denver Center
Mon 11:54:18 PM 40.2525 -99.6828 259° West 433 498 36,000  Level Denver Center
Mon 11:55:18 PM 40.2283 -99.8378 261° West 433 498 36,000  Level Denver Center
Mon 11:56:18 PM 40.2097 -99.9892 259° West 433 498 36,000  Level Denver Center
Mon 11:57:18 PM 40.1883 -100.1300 259° West 433 498 36,000  Level Denver Center
Mon 11:58:18 PM 40.1653 -100.2817 259° West 433 498 36,000  Level Denver Center
Mon 11:59:18 PM 40.1425 -100.4414 258° West 423 487 36,000  Level Denver Center
Tue 12:00:18 AM 40.1189 -100.5903 259° West 416 479 36,000  Level Denver Center
Tue 12:01:18 AM 40.0986 -100.7253 258° West 421 484 36,000  Level Denver Center
Tue 12:02:18 AM 40.0747 -100.8739 258° West 421 484 36,000  Level Denver Center
Tue 12:03:18 AM 40.0492 -101.0361 260° West 416 479 36,000  Level Denver Center
Tue 12:04:18 AM 40.0289 -101.1842 257° West 416 479 36,000  Level Denver Center
Tue 12:05:18 AM 40.0022 -101.3328 259° West 416 479 36,000  Level Denver Center
Tue 12:06:18 AM 39.9811 -101.4700 257° West 416 479 36,000  Level Denver Center
Tue 12:07:18 AM 39.9528 -101.6319 259° West 418 481 36,000  Level Denver Center
Tue 12:08:18 AM 39.9297 -101.7825 257° West 423 487 36,000  Level Denver Center
Tue 12:09:18 AM 39.9044 -101.9306 259° West 423 487 36,000  Level Denver Center
Tue 12:10:18 AM 39.8847 -102.0672 257° West 423 487 36,000 -600 Level Denver Center
Tue 12:11:18 AM 39.8553 -102.2289 258° West 423 487 34,800 -1,000 Descending Denver Center
Tue 12:12:18 AM 39.8314 -102.3764 256° West 423 487 34,000 -400 Descending Denver Center
Tue 12:13:18 AM 39.8033 -102.5267 259° West 423 487 34,000  Level Denver Center
Tue 12:14:18 AM 39.7831 -102.6631 259° West 423 487 34,000  Level Denver Center
Tue 12:15:18 AM 39.7608 -102.8156 257° West 434 499 34,000  Level Denver Center
Tue 12:16:18 AM 39.7342 -102.9628 258° West 429 494 34,000  Level Denver Center
Tue 12:17:18 AM 39.7078 -103.1261 257° West 429 494 34,000  Level Denver Center
Tue 12:18:18 AM 39.6806 -103.2758 257° West 429 494 34,000  Level Denver Center
Tue 12:19:18 AM 39.6536 -103.4281 257° West 429 494 34,000  Level Denver Center
Tue 12:20:18 AM 39.6261 -103.5778 256° West 429 494 34,000  Level Denver Center
Tue 12:21:18 AM 39.5983 -103.7244 257° West 429 494 34,000  Level Denver Center
Tue 12:22:18 AM 39.5708 -103.8792 256° West 434 499 34,000  Level Denver Center
Tue 12:23:18 AM 39.5428 -104.0283 256° West 434 499 34,000  Level Denver Center
Tue 12:24:18 AM 39.5144 -104.1772 257° West 434 499 34,000  Level Denver Center
Tue 12:25:18 AM 39.4900 -104.3125 256° West 434 499 34,000  Level Denver Center
Tue 12:26:18 AM 39.4614 -104.4589 257° West 434 499 34,000  Level Denver Center
Tue 12:27:18 AM 39.4328 -104.6128 255° West 439 505 34,000  Level Denver Center
Tue 12:28:18 AM 39.3978 -104.7778 258° West 439 505 34,000  Level Denver Center
Tue 12:29:18 AM 39.3728 -104.9261 256° West 434 499 34,000  Level Denver Center
Tue 12:30:18 AM 39.3433 -105.0744 257° West 434 499 34,000  Level Denver Center
Tue 12:31:18 AM 39.3178 -105.2197 255° West 428 493 34,000  Level Denver Center
Tue 12:32:18 AM 39.2881 -105.3653 255° West 423 487 34,000  Level Denver Center
Tue 12:33:18 AM 39.2581 -105.5106 256° West 423 487 34,000  Level Denver Center
Tue 12:34:18 AM 39.2281 -105.6611 256° West 428 493 34,000  Level Denver Center
Tue 12:35:18 AM 39.2017 -105.7928 255° West 428 493 34,000  Level Denver Center
Tue 12:36:18 AM 39.1714 -105.9403 255° West 433 498 34,000  Level Denver Center
Tue 12:37:18 AM 39.1406 -106.0878 256° West 427 491 34,000  Level Denver Center
Tue 12:38:18 AM 39.1117 -106.2350 256° West 427 491 34,000  Level Denver Center
Tue 12:39:18 AM 39.0808 -106.3983 255° West 432 497 34,000  Level Denver Center
Tue 12:40:18 AM 39.0494 -106.5481 254° West 432 497 34,000  Level Denver Center
Tue 12:41:18 AM 39.0181 -106.6922 255° West 432 497 34,000  Level Denver Center
Tue 12:42:18 AM 38.9906 -106.8258 255° West 432 497 34,000  Level Denver Center
Tue 12:43:18 AM 38.9564 -106.9883 254° West 437 503 34,000  Level Denver Center
Tue 12:44:18 AM 38.9244 -107.1350 255° West 437 503 34,000  Level Denver Center
Tue 12:45:18 AM 38.8944 -107.2814 255° West 437 503 34,000  Level Denver Center
Tue 12:46:18 AM 38.8661 -107.4169 253° West 432 497 34,000  Level Denver Center
Tue 12:47:18 AM 38.8317 -107.5606 255° West 432 497 34,000  Level Denver Center
Tue 12:48:18 AM 38.7986 -107.7225 253° West 432 497 34,000  Level Denver Center
Tue 12:49:18 AM 38.7636 -107.8683 256° West 432 497 34,000  Level Denver Center
Tue 12:50:18 AM 38.7389 -107.9956 254° West 432 497 34,000  Level Denver Center
Tue 12:51:18 AM 38.7056 -108.1439 254° West 427 491 34,000  Level Denver Center
Tue 12:52:18 AM 38.6700 -108.3000 254° West 427 491 34,000  Level Denver Center
Tue 12:53:18 AM 38.6383 -108.4453 253° West 419 482 34,000  Level Denver Center
Tue 12:54:18 AM 38.6089 -108.5719 254° West 419 482 34,000  Level Denver Center
Tue 12:55:18 AM 38.5769 -108.7144 253° West 414 476 34,000  Level Denver Center
Tue 12:56:18 AM 38.5383 -108.8750 254° West 414 476 34,000  Level Denver Center
Tue 12:57:18 AM 38.5058 -109.0172 255° West 414 476 34,000  Level Denver Center
Tue 12:58:17 AM 38.4756 -109.1594 253° West 414 476 34,000  Level Denver Center
Tue 01:00:39 AM 38.3969 -109.4903 253° West 420 483 34,000  Level Salt Lake Center
Tue 01:01:40 AM 38.3650 -109.6256 253° West 418 481 34,000  Level Salt Lake Center
Tue 01:02:41 AM 38.3317 -109.7628 253° West 421 484 34,000  Level Salt Lake Center
Tue 01:03:42 AM 38.2931 -109.9244 246° West 425 489 34,000  Level Salt Lake Center
Tue 01:04:44 AM 38.2467 -110.0575 243° Southwest 426 490 34,000  Level Salt Lake Center
Tue 01:05:45 AM 38.1853 -110.2125 243° Southwest 436 502 34,000 -49 Level Salt Lake Center
Tue 01:06:46 AM 38.1333 -110.3431 243° Southwest 433 498 33,900  Descending Salt Lake Center
Tue 01:07:47 AM 38.0814 -110.4731 243° Southwest 432 497 34,000 -197 Climbing Salt Lake Center
Tue 01:08:48 AM 38.0200 -110.6272 243° Southwest 436 502 33,500 -836 Descending Salt Lake Center
Tue 01:09:49 AM 37.9675 -110.7586 244° Southwest 436 502 32,300 -1,268 Descending Salt Lake Center
Tue 01:10:51 AM 37.9156 -110.8919 243° Southwest 438 504 30,900 -1,122 Descending Salt Lake Center
Tue 01:11:52 AM 37.8586 -111.0353 242° Southwest 445 512 30,000 -443 Descending Salt Lake Center
Tue 01:12:53 AM 37.8006 -111.1761 242° Southwest 445 512 30,000  Level Salt Lake Center
Tue 01:13:54 AM 37.7431 -111.3156 243° Southwest 443 510 30,000  Level Salt Lake Center
Tue 01:14:55 AM 37.6869 -111.4558 243° Southwest 441 507 30,000  Level Salt Lake Center
Tue 01:15:56 AM 37.6303 -111.5958 243° Southwest 441 507 30,000  Level Salt Lake Center
Tue 01:16:57 AM 37.5731 -111.7372 243° Southwest 443 510 30,000  Level Salt Lake Center
Tue 01:17:58 AM 37.5161 -111.8761 243° Southwest 441 507 30,000  Level Salt Lake Center
Tue 01:18:59 AM 37.4581 -112.0181 242° Southwest 444 511 30,000  Level Salt Lake Center
Tue 01:20:00 AM 37.3989 -112.1603 242° Southwest 448 516 30,000  Level Salt Lake Center
Tue 01:21:01 AM 37.3403 -112.3014 242° Southwest 448 516 30,000  Level Salt Lake Center
Tue 01:22:02 AM 37.2811 -112.4422 242° Southwest 446 513 30,000  Level Salt Lake Center
Tue 01:23:03 AM 37.2217 -112.5836 242° Southwest 447 514 30,000  Level Salt Lake Center
Tue 01:24:04 AM 37.1631 -112.7236 242° Southwest 445 512 30,000  Level Salt Lake Center
Tue 01:25:05 AM 37.1036 -112.8644 242° Southwest 446 513 30,000  Level Salt Lake Center
Tue 01:26:06 AM 37.0439 -113.0053 242° Southwest 447 514 30,000  Level Salt Lake Center
Tue 01:27:07 AM 36.9833 -113.1450 242° Southwest 448 516 30,000  Level Salt Lake Center
Tue 01:28:07 AM 36.9247 -113.2831 242° Southwest 446 513 30,000 -587 Level Salt Lake Center
Tue 01:29:30 AM 36.8425 -113.4778 241° Southwest 444 511 28,600 -1,594 Descending Los Angeles Center
Tue 01:30:30 AM 36.7828 -113.6144 242° Southwest 444 511 26,200 -2,100 Descending Los Angeles Center
Tue 01:31:30 AM 36.7311 -113.7353 242° Southwest 444 511 24,400 -2,150 Descending Los Angeles Center
Tue 01:32:30 AM 36.6750 -113.8664 241° Southwest 438 504 21,900 -2,500 Descending Los Angeles Center
Tue 01:33:30 AM 36.6189 -113.9922 242° Southwest 427 491 19,400 -2,650 Descending Los Angeles Center
Tue 01:34:30 AM 36.5667 -114.1125 241° Southwest 415 478 16,600 -2,885 Descending Los Angeles Center
Tue 01:35:14 AM 36.5183 -114.2197 237° Southwest 411 473 14,400 -2,486 Descending Los Angeles Center
Tue 01:36:21 AM 36.4575 -114.3372 240° Southwest 386 444 12,000 -1,075 Descending Los Angeles Center
Tue 01:37:28 AM 36.4050 -114.4519 228° Southwest 319 367 12,000  Level Los Angeles Center
Tue 01:38:29 AM 36.3539 -114.5228 187° South 299 344 12,000 -99 Level Los Angeles Center
Tue 01:39:29 AM 36.2642 -114.5372 195° South 309 356 11,800 -694 Descending Los Angeles Center
Tue 01:40:30 AM 36.1894 -114.5619 230° Southwest 287 330 10,600 -1,388 Descending Los Angeles Center
Tue 01:41:30 AM 36.1403 -114.6350 228° Southwest 270 311 9,000 -1,250 Descending Los Angeles Center
Tue 01:42:30 AM 36.0931 -114.7000 253° West 270 311 8,100 -850 Descending Los Angeles Center
Tue 01:43:30 AM 36.0753 -114.7722 269° West 231 266 7,300 -900 Descending Los Angeles Center
Tue 01:44:30 AM 36.0739 -114.8469 271° West 221 254 6,300 -1,100 Descending Los Angeles Center
Tue 01:45:30 AM 36.0747 -114.9239 271° West 221 254 5,100 -1,200 Descending Los Angeles Center

Login

Don't have an account? Register now (free) for customized features, flight alerts, and more!